»·PEaware :: XOJ550 KSAN-KSWF

XOJ550 :: KSAN-KSWF

FLIGHT INFORMATION

Flight Status: Arrived
Operator:
XOJET
More flights by this operator :: More flights under this callsign
Pilot: Charles S. (11412)
Aircraft: BOMBARDIER BD-100 CHALLENGER 300
(CL30)
More flights by this aircraft type
Origin: KSAN San Diego Intl-Lindbergh
United States
Destination: KSWF Stewart Intl
United States
More flights between these airports :: More routes between these airports
Route: +ZZOOO2 MTBAL PKE J78 DRK J134 CIM J96 GCK J18 SLN J24 MCI J80 VHP J110 LEJOY HUO
File this flight plan on PilotEdge
Remarks:
Altitude:
(Current/Filed)
39,000ft
Speed:
(Current/Filed)
270kts
Departed: 24-Aug-18 07:25 AM
Arrived: 24-Aug-18 12:03 PM
Distance/Time
Traveled:
2105nm/4:37
Distance/Time
To Go:
Arrived

Flight Plot

Page will automatically refresh every two minutes.

Flight plan parsing failed; only flown route is shown


Map Options




Map Legend


Flown Route
Filed Route
Departure Airport
Arrival Airport
Navaid (VOR, NDB)
Fix

Horizontal Profiles

Position Reports

Time Latitude Longitude Heading Altitude Ground
Speed
24-Aug-18 07:11 32.732361 -117.177531 194 23ft 0kts
24-Aug-18 07:12 32.732361 -117.177531 194 23ft 0kts
24-Aug-18 07:13 32.732361 -117.177531 194 23ft 0kts
24-Aug-18 07:14 32.732361 -117.177531 194 23ft 0kts
24-Aug-18 07:15 32.732361 -117.177531 194 23ft 0kts
24-Aug-18 07:16 32.732361 -117.177531 194 23ft 0kts
24-Aug-18 07:17 32.732361 -117.177531 194 23ft 0kts
24-Aug-18 07:18 32.732361 -117.177531 194 23ft 0kts
24-Aug-18 07:19 32.732361 -117.177531 194 23ft 0kts
24-Aug-18 07:20 32.732361 -117.177531 194 23ft 0kts
24-Aug-18 07:21 32.732361 -117.177531 194 23ft 0kts
24-Aug-18 07:22 32.732361 -117.177531 194 23ft 0kts
24-Aug-18 07:23 32.732301 -117.177547 192 23ft 2kts
24-Aug-18 07:24 32.731117 -117.175774 118 24ft 5kts
24-Aug-18 07:25 32.730168 -117.175385 239 23ft 13kts
24-Aug-18 07:26 32.739770 -117.207091 301 1790ft 145kts
24-Aug-18 07:27 32.751960 -117.255608 283 5159ft 175kts
24-Aug-18 07:28 32.730296 -117.293960 161 8202ft 208kts
24-Aug-18 07:29 32.669839 -117.264124 157 11187ft 280kts
24-Aug-18 07:30 32.631048 -117.182706 100 14062ft 326kts
24-Aug-18 07:31 32.616995 -117.067143 98 16912ft 380kts
24-Aug-18 07:32 32.604805 -116.944266 97 19687ft 395kts
24-Aug-18 07:33 32.625926 -116.814765 62 22549ft 414kts
24-Aug-18 07:34 32.717737 -116.737744 26 25430ft 418kts
24-Aug-18 07:35 32.822743 -116.680773 23 28219ft 416kts
24-Aug-18 07:36 32.929055 -116.627340 22 30553ft 418kts
24-Aug-18 07:37 33.035723 -116.573728 23 32755ft 418kts
24-Aug-18 07:38 33.132671 -116.523042 22 34089ft 430kts
24-Aug-18 07:39 33.238647 -116.467567 22 35245ft 445kts
24-Aug-18 07:40 33.351618 -116.408004 25 36441ft 456kts
24-Aug-18 07:41 33.440534 -116.309109 53 37608ft 461kts
24-Aug-18 07:42 33.516209 -116.187170 55 38704ft 468kts
24-Aug-18 07:43 33.592586 -116.059258 59 38992ft 492kts
24-Aug-18 07:44 33.651237 -115.912671 67 39085ft 494kts
24-Aug-18 07:45 33.705332 -115.768354 67 39092ft 492kts
24-Aug-18 07:46 33.759436 -115.622437 67 39100ft 492kts
24-Aug-18 07:47 33.813550 -115.475696 67 39179ft 491kts
24-Aug-18 07:48 33.868243 -115.326690 68 38899ft 490kts
24-Aug-18 07:49 33.922606 -115.177908 68 38927ft 485kts
24-Aug-18 07:50 33.976427 -115.029916 68 38929ft 482kts
24-Aug-18 07:51 34.029555 -114.883156 68 38929ft 479kts
24-Aug-18 07:52 34.082250 -114.736949 68 38930ft 480kts
24-Aug-18 07:53 34.127483 -114.591115 72 38931ft 478kts
24-Aug-18 07:54 34.170431 -114.439560 72 38935ft 479kts
24-Aug-18 07:55 34.212518 -114.289648 73 38933ft 478kts
24-Aug-18 07:56 34.254604 -114.138783 73 38935ft 478kts
24-Aug-18 07:57 34.295097 -113.992938 73 38934ft 478kts
24-Aug-18 07:58 34.336781 -113.841974 73 38935ft 478kts
24-Aug-18 07:59 34.378456 -113.690224 73 38935ft 478kts
24-Aug-18 08:00 34.410063 -113.574595 73 38934ft 478kts
24-Aug-18 08:01 34.447883 -113.435545 73 39045ft 478kts
24-Aug-18 08:02 34.489022 -113.283491 73 39205ft 479kts
24-Aug-18 08:03 34.530236 -113.130318 73 39228ft 478kts
24-Aug-18 08:04 34.571247 -112.977057 73 39229ft 478kts
24-Aug-18 08:05 34.611807 -112.824647 74 39229ft 477kts
24-Aug-18 08:06 34.652251 -112.671725 74 39230ft 477kts
24-Aug-18 08:07 34.689356 -112.530692 74 39230ft 477kts
24-Aug-18 08:08 34.726411 -112.376846 76 39230ft 477kts
24-Aug-18 08:09 34.761731 -112.223200 76 39229ft 476kts
24-Aug-18 08:10 34.797093 -112.068255 76 39230ft 476kts
24-Aug-18 08:11 34.832160 -111.913600 76 39302ft 476kts
24-Aug-18 08:12 34.866996 -111.758942 76 39349ft 476kts
24-Aug-18 08:13 34.896364 -111.627820 76 39350ft 477kts
24-Aug-18 08:14 34.924129 -111.503158 76 39351ft 480kts
24-Aug-18 08:15 34.954818 -111.364578 76 39352ft 483kts
24-Aug-18 08:16 34.989559 -111.206711 77 39275ft 486kts
24-Aug-18 08:17 35.024363 -111.047402 76 39231ft 491kts
24-Aug-18 08:18 35.059277 -110.886603 77 39232ft 492kts
24-Aug-18 08:19 35.093994 -110.725515 77 39233ft 491kts
24-Aug-18 08:20 35.128391 -110.564815 77 39228ft 491kts
24-Aug-18 08:21 35.162681 -110.403471 77 39229ft 492kts
24-Aug-18 08:22 35.196727 -110.242147 77 39224ft 491kts
24-Aug-18 08:23 35.230482 -110.081027 77 39226ft 492kts
24-Aug-18 08:24 35.258516 -109.946331 77 39227ft 491kts
24-Aug-18 08:25 35.297553 -109.757416 77 39272ft 491kts
24-Aug-18 08:26 35.330674 -109.595930 77 39313ft 491kts
24-Aug-18 08:27 35.358162 -109.460957 77 39321ft 491kts
24-Aug-18 08:28 35.396455 -109.271552 78 39317ft 491kts
24-Aug-18 08:29 35.423582 -109.136304 78 39319ft 491kts
24-Aug-18 08:30 35.461262 -108.946915 77 39316ft 490kts
24-Aug-18 08:31 35.492090 -108.813572 72 39315ft 491kts
24-Aug-18 08:32 35.542611 -108.628182 72 39312ft 491kts
24-Aug-18 08:33 35.578008 -108.497427 71 39606ft 490kts
24-Aug-18 08:34 35.619910 -108.341893 72 40116ft 492kts
24-Aug-18 08:35 35.662665 -108.182113 72 40606ft 491kts
24-Aug-18 08:36 35.704907 -108.023357 72 41102ft 491kts
24-Aug-18 08:37 35.747292 -107.863093 72 41330ft 493kts
24-Aug-18 08:38 35.789178 -107.703711 72 41331ft 490kts
24-Aug-18 08:39 35.830924 -107.543888 72 41333ft 491kts
24-Aug-18 08:40 35.872433 -107.384045 72 41299ft 491kts
24-Aug-18 08:41 35.913663 -107.224291 73 41260ft 490kts
24-Aug-18 08:42 35.954755 -107.064065 73 41297ft 491kts
24-Aug-18 08:43 35.995630 -106.903627 72 41328ft 492kts
24-Aug-18 08:44 36.036454 -106.742437 72 41334ft 493kts
24-Aug-18 08:45 36.077135 -106.580806 72 41332ft 492kts
24-Aug-18 08:46 36.117351 -106.420011 72 41331ft 493kts
24-Aug-18 08:47 36.157543 -106.258265 73 41325ft 493kts
24-Aug-18 08:48 36.197337 -106.097066 73 41329ft 493kts
24-Aug-18 08:49 36.237041 -105.935186 73 41335ft 492kts
24-Aug-18 08:50 36.276374 -105.773777 73 41339ft 493kts
24-Aug-18 08:51 36.315608 -105.611679 73 41340ft 493kts
24-Aug-18 08:52 36.354633 -105.449404 73 41375ft 493kts
24-Aug-18 08:53 36.393506 -105.286676 73 41400ft 493kts
24-Aug-18 08:54 36.432040 -105.124339 73 41401ft 492kts
24-Aug-18 08:55 36.470541 -104.960951 73 41402ft 492kts
24-Aug-18 08:56 36.516879 -104.803731 64 41336ft 492kts
24-Aug-18 08:57 36.573135 -104.649506 64 41233ft 491kts
24-Aug-18 08:58 36.629123 -104.495913 64 41222ft 491kts
24-Aug-18 08:59 36.684751 -104.342661 65 41222ft 491kts
24-Aug-18 09:00 36.740305 -104.188887 65 41218ft 491kts
24-Aug-18 09:01 36.795991 -104.033961 65 41219ft 491kts
24-Aug-18 09:02 36.851425 -103.878906 65 41209ft 491kts
24-Aug-18 09:03 36.906846 -103.723171 65 41179ft 491kts
24-Aug-18 09:04 36.951351 -103.597500 65 41173ft 492kts
24-Aug-18 09:05 37.006481 -103.441089 65 41122ft 497kts
24-Aug-18 09:06 37.062074 -103.282567 65 41108ft 504kts
24-Aug-18 09:07 37.118608 -103.120465 64 41115ft 512kts
24-Aug-18 09:08 37.175630 -102.956107 64 41097ft 515kts
24-Aug-18 09:09 37.232403 -102.791590 64 41071ft 515kts
24-Aug-18 09:10 37.288779 -102.627301 64 41047ft 515kts
24-Aug-18 09:11 37.345202 -102.461965 64 41045ft 515kts
24-Aug-18 09:12 37.400824 -102.298041 65 41034ft 515kts
24-Aug-18 09:13 37.456726 -102.132353 65 41035ft 515kts
24-Aug-18 09:14 37.511598 -101.968824 65 41035ft 515kts
24-Aug-18 09:15 37.566994 -101.802813 65 41005ft 515kts
24-Aug-18 09:16 37.621701 -101.637933 65 40994ft 515kts
24-Aug-18 09:17 37.676745 -101.471123 65 40997ft 515kts
24-Aug-18 09:18 37.731287 -101.304861 65 40987ft 515kts
24-Aug-18 09:19 37.785645 -101.138175 65 40980ft 516kts
24-Aug-18 09:20 37.839832 -100.971029 65 40973ft 516kts
24-Aug-18 09:21 37.893841 -100.803448 65 40975ft 516kts
24-Aug-18 09:22 37.949507 -100.635844 64 40977ft 516kts
24-Aug-18 09:23 38.006188 -100.469045 64 40976ft 516kts
24-Aug-18 09:24 38.062449 -100.302581 64 40966ft 515kts
24-Aug-18 09:25 38.118429 -100.136077 64 40958ft 516kts
24-Aug-18 09:26 38.174402 -99.968600 64 40954ft 516kts
24-Aug-18 09:27 38.230005 -99.801258 64 40956ft 516kts
24-Aug-18 09:28 38.285481 -99.633333 64 40951ft 516kts
24-Aug-18 09:29 38.340674 -99.465270 64 40931ft 516kts
24-Aug-18 09:30 38.395665 -99.296852 65 40914ft 516kts
24-Aug-18 09:31 38.450168 -99.128919 65 40916ft 516kts
24-Aug-18 09:32 38.504987 -98.958903 65 40917ft 518kts
24-Aug-18 09:33 38.559518 -98.788879 65 40920ft 519kts
24-Aug-18 09:34 38.613875 -98.618371 65 40914ft 519kts
24-Aug-18 09:35 38.667690 -98.448465 65 40912ft 519kts
24-Aug-18 09:36 38.720783 -98.279880 65 40905ft 519kts
24-Aug-18 09:37 38.774228 -98.109123 65 40903ft 519kts
24-Aug-18 09:38 38.827621 -97.937500 65 40900ft 519kts
24-Aug-18 09:39 38.880687 -97.765856 65 40902ft 519kts
24-Aug-18 09:40 38.927149 -97.590501 76 40910ft 527kts
24-Aug-18 09:41 38.954329 -97.405390 77 40907ft 530kts
24-Aug-18 09:42 38.979714 -97.219726 78 40887ft 532kts
24-Aug-18 09:43 39.004727 -97.032648 78 40882ft 535kts
24-Aug-18 09:44 39.029555 -96.844149 79 40883ft 538kts
24-Aug-18 09:45 39.054266 -96.653989 79 40886ft 540kts
24-Aug-18 09:46 39.078672 -96.463665 79 40889ft 539kts
24-Aug-18 09:47 39.102768 -96.273298 79 40876ft 539kts
24-Aug-18 09:48 39.126381 -96.084102 79 40886ft 540kts
24-Aug-18 09:49 39.149930 -95.892844 79 40894ft 540kts
24-Aug-18 09:50 39.173123 -95.701817 79 40895ft 540kts
24-Aug-18 09:51 39.195886 -95.511648 80 40897ft 540kts
24-Aug-18 09:52 39.218481 -95.320222 80 40886ft 540kts
24-Aug-18 09:53 39.240641 -95.129568 80 40888ft 540kts
24-Aug-18 09:54 39.262601 -94.937988 81 40895ft 539kts
24-Aug-18 09:55 39.284163 -94.747064 80 40901ft 537kts
24-Aug-18 09:56 39.308899 -94.557524 79 40902ft 537kts
24-Aug-18 09:57 39.333611 -94.367182 79 40913ft 537kts
24-Aug-18 09:58 39.357872 -94.177925 80 40905ft 537kts
24-Aug-18 09:59 39.381980 -93.987278 80 40909ft 538kts
24-Aug-18 10:00 39.405648 -93.797489 79 40917ft 537kts
24-Aug-18 10:01 39.429134 -93.606734 80 40961ft 537kts
24-Aug-18 10:02 39.452284 -93.415923 80 40971ft 537kts
24-Aug-18 10:03 39.474958 -93.226309 80 40960ft 537kts
24-Aug-18 10:04 39.497491 -93.035116 80 40965ft 535kts
24-Aug-18 10:05 39.519412 -92.846308 81 40972ft 527kts
24-Aug-18 10:06 39.540886 -92.658605 81 40977ft 528kts
24-Aug-18 10:07 39.562009 -92.471191 81 40979ft 528kts
24-Aug-18 10:08 39.582878 -92.283365 82 40969ft 528kts
24-Aug-18 10:09 39.603475 -92.094988 82 40974ft 528kts
24-Aug-18 10:10 39.623656 -91.907630 82 40993ft 528kts
24-Aug-18 10:11 39.643722 -91.718443 82 40995ft 528kts
24-Aug-18 10:12 39.663341 -91.530389 82 40997ft 528kts
24-Aug-18 10:13 39.682682 -91.341577 82 40997ft 528kts
24-Aug-18 10:14 39.701649 -91.153078 83 40993ft 527kts
24-Aug-18 10:15 39.720052 -90.967640 83 41009ft 513kts
24-Aug-18 10:16 39.737899 -90.784043 82 40990ft 517kts
24-Aug-18 10:17 39.756092 -90.595048 82 41008ft 532kts
24-Aug-18 10:18 39.773889 -90.406536 82 41017ft 527kts
24-Aug-18 10:19 39.791415 -90.217509 83 41006ft 528kts
24-Aug-18 10:20 39.808673 -90.027919 83 41009ft 528kts
24-Aug-18 10:21 39.825591 -89.838626 83 41022ft 528kts
24-Aug-18 10:22 39.839026 -89.648965 89 41037ft 528kts
24-Aug-18 10:23 39.840829 -89.462528 90 41039ft 527kts
24-Aug-18 10:24 39.841729 -89.272270 91 41058ft 527kts
24-Aug-18 10:25 39.842211 -89.081520 91 41063ft 527kts
24-Aug-18 10:26 39.842397 -88.892238 91 41065ft 518kts
24-Aug-18 10:27 39.842235 -88.707632 92 41067ft 508kts
24-Aug-18 10:28 39.841788 -88.524403 92 41072ft 511kts
24-Aug-18 10:29 39.840989 -88.341947 92 41099ft 510kts
24-Aug-18 10:30 39.839933 -88.157702 92 41100ft 510kts
24-Aug-18 10:31 39.838608 -87.973774 92 41105ft 510kts
24-Aug-18 10:32 39.836989 -87.789560 92 41112ft 511kts
24-Aug-18 10:33 39.835421 -87.635944 92 41114ft 510kts
24-Aug-18 10:34 39.832868 -87.420439 92 41117ft 510kts
24-Aug-18 10:35 39.830400 -87.236629 93 41111ft 510kts
24-Aug-18 10:36 39.827603 -87.052973 92 41113ft 510kts
24-Aug-18 10:37 39.824505 -86.868973 91 41111ft 508kts
24-Aug-18 10:38 39.821774 -86.716497 91 41115ft 508kts
24-Aug-18 10:39 39.817582 -86.503171 91 41144ft 508kts
24-Aug-18 10:40 39.815463 -86.350094 85 41163ft 508kts
24-Aug-18 10:41 39.828345 -86.137877 85 41163ft 508kts
24-Aug-18 10:42 39.837200 -85.985245 85 41165ft 508kts
24-Aug-18 10:43 39.847551 -85.801898 85 41166ft 508kts
24-Aug-18 10:44 39.856988 -85.629965 85 41172ft 508kts
24-Aug-18 10:45 39.865634 -85.468017 85 41184ft 508kts
24-Aug-18 10:46 39.875212 -85.283597 86 41185ft 515kts
24-Aug-18 10:47 39.884494 -85.098248 85 41189ft 511kts
24-Aug-18 10:48 39.893423 -84.915289 84 41190ft 504kts
24-Aug-18 10:49 39.902016 -84.733562 84 41193ft 505kts
24-Aug-18 10:50 39.910323 -84.551164 84 41197ft 505kts
24-Aug-18 10:51 39.918308 -84.369208 84 41205ft 505kts
24-Aug-18 10:52 39.926001 -84.187784 85 41206ft 505kts
24-Aug-18 10:53 39.933418 -84.006323 85 41201ft 505kts
24-Aug-18 10:54 39.940558 -83.823934 85 41207ft 505kts
24-Aug-18 10:55 39.947415 -83.641524 85 41215ft 505kts
24-Aug-18 10:56 39.953973 -83.459647 85 41223ft 505kts
24-Aug-18 10:57 39.960259 -83.277587 86 41224ft 505kts
24-Aug-18 10:58 39.964925 -83.096125 87 41213ft 506kts
24-Aug-18 10:59 39.969840 -82.915577 85 41207ft 503kts
24-Aug-18 11:00 39.975370 -82.735288 85 41209ft 498kts
24-Aug-18 11:01 39.980643 -82.555464 85 41220ft 500kts
24-Aug-18 11:02 39.985633 -82.374976 85 41221ft 499kts
24-Aug-18 11:03 39.990336 -82.194899 85 41218ft 499kts
24-Aug-18 11:04 39.994765 -82.014448 85 41226ft 499kts
24-Aug-18 11:05 39.998890 -81.834971 85 41227ft 499kts
24-Aug-18 11:06 40.002724 -81.656171 85 41221ft 499kts
24-Aug-18 11:07 40.006385 -81.475771 85 41220ft 499kts
24-Aug-18 11:08 40.009912 -81.296105 86 41215ft 499kts
24-Aug-18 11:09 40.012913 -81.115549 86 41218ft 499kts
24-Aug-18 11:10 40.015450 -80.935891 85 41245ft 491kts
24-Aug-18 11:11 40.016745 -80.762109 86 41261ft 488kts
24-Aug-18 11:12 40.015946 -80.589162 86 41270ft 489kts
24-Aug-18 11:13 40.014820 -80.412427 86 41295ft 489kts
24-Aug-18 11:14 40.013487 -80.242980 87 41296ft 490kts
24-Aug-18 11:15 40.011842 -80.067392 87 41290ft 490kts
24-Aug-18 11:16 40.009936 -79.892600 87 41269ft 489kts
24-Aug-18 11:17 40.007787 -79.719323 87 41286ft 489kts
24-Aug-18 11:18 40.005326 -79.542013 87 41292ft 490kts
24-Aug-18 11:19 40.021030 -79.369792 65 41294ft 477kts
24-Aug-18 11:20 40.069041 -79.210143 64 41287ft 477kts
24-Aug-18 11:21 40.118957 -79.050540 64 41313ft 481kts
24-Aug-18 11:22 40.169522 -78.888953 65 41331ft 483kts
24-Aug-18 11:23 40.219695 -78.727896 65 41341ft 482kts
24-Aug-18 11:24 40.269656 -78.566725 65 41361ft 482kts
24-Aug-18 11:25 40.318253 -78.409017 65 41367ft 482kts
24-Aug-18 11:26 40.367135 -78.249486 65 41376ft 483kts
24-Aug-18 11:27 40.416597 -78.087060 65 41377ft 482kts
24-Aug-18 11:28 40.465918 -77.924116 65 41381ft 483kts
24-Aug-18 11:29 40.515127 -77.760560 65 41381ft 483kts
24-Aug-18 11:30 40.563641 -77.598301 66 41386ft 483kts
24-Aug-18 11:31 40.612104 -77.435176 65 41397ft 483kts
24-Aug-18 11:32 40.660305 -77.271959 66 41399ft 483kts
24-Aug-18 11:33 40.708486 -77.107789 66 41389ft 483kts
24-Aug-18 11:34 40.756812 -76.942193 67 41389ft 484kts
24-Aug-18 11:35 40.803857 -76.780001 68 41390ft 485kts
24-Aug-18 11:36 40.851310 -76.615294 68 40548ft 492kts
24-Aug-18 11:37 40.899128 -76.448150 68 38410ft 482kts
24-Aug-18 11:38 40.945142 -76.286329 68 36331ft 466kts
24-Aug-18 11:39 40.989408 -76.129590 68 34308ft 450kts
24-Aug-18 11:40 41.032757 -75.975324 68 32363ft 455kts
24-Aug-18 11:41 41.076794 -75.817425 69 30362ft 462kts
24-Aug-18 11:42 41.119446 -75.663619 69 28412ft 463kts
24-Aug-18 11:43 41.163151 -75.505093 69 26401ft 456kts
24-Aug-18 11:44 41.205915 -75.348982 70 24421ft 444kts
24-Aug-18 11:45 41.246964 -75.198207 71 22493ft 429kts
24-Aug-18 11:46 41.286374 -75.052637 71 20642ft 411kts
24-Aug-18 11:47 41.323512 -74.914621 71 18852ft 392kts
24-Aug-18 11:48 41.358655 -74.783241 71 17009ft 373kts
24-Aug-18 11:49 41.392386 -74.656532 71 15326ft 363kts
24-Aug-18 11:50 41.429095 -74.534505 66 13738ft 355kts
24-Aug-18 11:51 41.468823 -74.415676 65 12181ft 348kts
24-Aug-18 11:52 41.506320 -74.303446 66 10714ft 340kts
24-Aug-18 11:53 41.543005 -74.193276 66 9220ft 308kts
24-Aug-18 11:54 41.575622 -74.094920 66 7720ft 277kts
24-Aug-18 11:55 41.605435 -74.004650 66 6230ft 263kts
24-Aug-18 11:56 41.634262 -73.917070 66 4760ft 259kts
24-Aug-18 11:57 41.643186 -73.831270 139 3276ft 239kts
24-Aug-18 11:58 41.586699 -73.837726 195 2973ft 202kts
24-Aug-18 11:59 41.544834 -73.873476 253 2988ft 197kts
24-Aug-18 12:00 41.531092 -73.940817 255 2756ft 166kts
24-Aug-18 12:01 41.522573 -73.990854 256 2044ft 124kts
24-Aug-18 12:02 41.515495 -74.035793 257 1386ft 123kts
24-Aug-18 12:03 41.508643 -74.080121 257 734ft 122kts
24-Aug-18 12:04 41.503210 -74.112383 233 458ft 25kts
24-Aug-18 12:05 41.502327 -74.109392 76 450ft 27kts
24-Aug-18 12:06 41.503220 -74.103566 76 465ft 20kts
24-Aug-18 12:07 41.503189 -74.097775 193 463ft 17kts
24-Aug-18 12:08 41.500774 -74.099610 310 466ft 11kts

Navigation Log

Ident Type
Flight plan parsing failed, navigation log unavailable